Pagrindinis puslapis
METAR-TAF:

METAR-TAF

Oro uostai :

Pekanbaru, Indonezija

platuma: 00-28N, ilguma: 101-27E, Aukštis: 31 m

Dabartinis oras

Ataskaita buvo paskelbta 1 valandą ir 13 minutes, ne 11:30 UTC
Ramus vėjas
Temperatūra 27°C
Drėgmė 89%
Slėgis 1009 hPa
Matomumas: 8000 m
Išsisklaidę debesys ne aukštis 1500 ft

METAR: WIBB 151130Z 00000KT 8000 SCT015 27/25 Q1009

Laikas: 19:43 (12:43 UTC)


TAF: trūkstamas

Orai ataskaitas ir orų prognozės (METAR, TAF).

turimą stotys yra geltonos ir raudonos taškus žemėlapyje.

Perkelti pele per norėdami pamatyti stoties vardą.

Tada spustelėkite, norėdami matyti oro stebėjimo ir prognozės.

Norėdami pakeisti žemėlapį: spustelėkite ant žalios mygtukų su juodo kryžiaus žemyn,; žalią mygtuką su brūkšneliu, jei norite nutolinti; arba žalių rodyklių gretimoms žemėlapius.


METAR-TAF: